createdAt,value
2022-10-19T00:02:17.974Z,32.53
2022-10-19T00:07:20.225Z,32.42
2022-10-19T00:12:22.425Z,29.67
2022-10-19T00:17:24.878Z,31.25
2022-10-19T00:22:27.266Z,28.35
2022-10-19T00:27:29.525Z,31.30
2022-10-19T00:32:32.065Z,27.77
2022-10-19T00:37:34.552Z,31.17
2022-10-19T00:42:36.759Z,28.52
2022-10-19T00:47:39.507Z,28.80
2022-10-19T00:52:42.459Z,24.05
2022-10-19T00:57:44.826Z,25.30
2022-10-19T01:02:47.246Z,26.77
2022-10-19T01:07:50.108Z,27.40
2022-10-19T01:13:10.601Z,20.02
2022-10-19T01:24:05.763Z,18.48
2022-10-19T01:29:26.185Z,21.33
2022-10-19T01:39:49.094Z,17.60
2022-10-19T01:45:04.597Z,21.13
2022-10-19T01:50:13.844Z,21.35
2022-10-19T01:55:18.277Z,18.63
2022-10-19T02:00:23.535Z,18.40
2022-10-19T02:05:31.205Z,21.73
2022-10-19T02:10:38.073Z,22.42
2022-10-19T02:15:43.474Z,24.50
2022-10-19T02:20:46.765Z,22.10
2022-10-19T02:25:49.276Z,18.40
2022-10-19T02:30:51.821Z,23.90
2022-10-19T02:35:54.227Z,22.30
2022-10-19T02:41:12.033Z,20.33
2022-10-19T02:46:44.377Z,20.25
2022-10-19T02:52:01.675Z,19.42
2022-10-19T02:57:27.619Z,20.63
2022-10-19T03:02:29.977Z,16.95
2022-10-19T03:07:32.539Z,17.17
2022-10-19T03:12:35.202Z,20.20
2022-10-19T03:17:37.441Z,15.63
2022-10-19T03:22:39.884Z,20.70
2022-10-19T03:27:42.142Z,18.95
2022-10-19T03:32:44.538Z,14.55
2022-10-19T03:37:46.734Z,9.27
2022-10-19T03:42:49.172Z,24.02
2022-10-19T03:47:52.314Z,20.73
2022-10-19T03:52:55.891Z,17.60
2022-10-19T03:57:58.685Z,20.25
2022-10-19T04:03:01.013Z,19.95
2022-10-19T04:08:03.164Z,17.23
2022-10-19T04:13:05.453Z,14.95
2022-10-19T04:18:07.666Z,25.75
2022-10-19T04:23:10.035Z,15.63
2022-10-19T04:28:12.363Z,20.77
2022-10-19T04:33:14.618Z,18.42
2022-10-19T04:38:17.001Z,21.38
2022-10-19T04:43:19.364Z,15.93
2022-10-19T04:48:21.731Z,38.80
2022-10-19T04:58:32.232Z,31.15
2022-10-19T05:03:34.585Z,20.98
2022-10-19T05:08:37.979Z,43.33
2022-10-19T05:13:41.243Z,27.73
2022-10-19T05:18:43.434Z,27.73
2022-10-19T05:23:46.231Z,39.75
2022-10-19T05:28:57.145Z,31.83
2022-10-19T05:33:59.941Z,31.27
2022-10-19T05:39:14.860Z,27.65
2022-10-19T05:44:22.798Z,22.45
2022-10-19T05:49:25.040Z,20.83
2022-10-19T05:54:28.597Z,18.88
2022-10-19T05:59:31.557Z,21.52
2022-10-19T06:04:34.301Z,30.90
2022-10-19T06:09:37.690Z,30.50
2022-10-19T06:14:39.927Z,20.83
2022-10-19T06:19:42.307Z,22.85
2022-10-19T06:24:44.616Z,24.70
2022-10-19T06:29:46.934Z,27.98
2022-10-19T06:34:50.839Z,27.63
2022-10-19T06:39:55.424Z,21.30
2022-10-19T06:44:57.631Z,24.35
2022-10-19T06:49:59.811Z,29.75
2022-10-19T06:55:02.957Z,23.27
2022-10-19T07:00:09.340Z,25.02
2022-10-19T07:05:11.941Z,22.92
2022-10-19T07:10:14.363Z,36.63
2022-10-19T07:15:16.814Z,24.60
2022-10-19T07:20:19.410Z,20.60
2022-10-19T07:25:21.872Z,20.30
2022-10-19T07:30:24.412Z,21.52
2022-10-19T07:40:52.608Z,20.17
2022-10-19T07:46:03.041Z,24.92
2022-10-19T07:51:07.403Z,16.35
2022-10-19T07:56:12.430Z,21.45
2022-10-19T08:01:16.452Z,17.33
2022-10-19T08:06:22.050Z,19.90
2022-10-19T08:11:33.479Z,15.70
2022-10-19T08:16:40.949Z,12.52
2022-10-19T08:21:47.703Z,11.32
2022-10-19T08:26:51.807Z,12.27
2022-10-19T08:31:54.273Z,9.45
2022-10-19T08:36:56.619Z,9.82
2022-10-19T08:42:14.969Z,11.70
2022-10-19T08:47:54.585Z,10.65
2022-10-19T08:53:03.005Z,16.38
2022-10-19T08:58:21.171Z,7.25
2022-10-19T09:03:54.313Z,9.45
2022-10-19T09:08:58.459Z,8.57
2022-10-19T09:14:30.887Z,11.32
2022-10-19T09:19:33.263Z,11.82
2022-10-19T09:25:18.493Z,7.13
2022-10-19T09:30:23.818Z,7.55
2022-10-19T09:35:31.095Z,8.90
2022-10-19T09:40:35.350Z,9.68
2022-10-19T09:45:43.478Z,9.65
2022-10-19T09:50:46.670Z,7.53
2022-10-19T09:55:57.889Z,9.57
2022-10-19T10:01:01.916Z,7.10
2022-10-19T10:06:07.938Z,7.38
2022-10-19T10:11:15.833Z,6.63
2022-10-19T10:16:21.854Z,10.10
2022-10-19T10:21:35.097Z,7.78
2022-10-19T10:26:43.174Z,9.18
2022-10-19T10:31:46.938Z,13.57
2022-10-19T10:36:52.348Z,5.32
2022-10-19T10:41:56.242Z,9.32
2022-10-19T10:47:01.065Z,8.43
2022-10-19T10:52:18.624Z,10.90
2022-10-19T11:02:58.845Z,9.73
2022-10-19T11:08:31.224Z,5.80
2022-10-19T11:13:42.069Z,5.82
2022-10-19T11:18:49.351Z,6.68
2022-10-19T11:24:12.315Z,5.97
2022-10-19T11:29:51.496Z,7.07
2022-10-19T11:34:59.618Z,15.57
2022-10-19T11:40:29.718Z,8.68
2022-10-19T11:45:31.891Z,9.77
2022-10-19T11:50:58.857Z,5.97
2022-10-19T11:57:01.625Z,13.80
2022-10-19T12:02:41.944Z,10.43
2022-10-19T12:08:08.194Z,8.73
2022-10-19T12:13:15.349Z,12.20
2022-10-19T12:18:41.687Z,6.50
2022-10-19T12:23:47.318Z,14.00
2022-10-19T12:28:53.061Z,11.52
2022-10-19T12:34:19.688Z,5.75
2022-10-19T12:39:39.712Z,10.43
2022-10-19T12:45:10.706Z,7.15
2022-10-19T12:50:12.962Z,4.70
2022-10-19T12:55:26.583Z,5.95
2022-10-19T13:00:35.439Z,7.20
2022-10-19T13:10:39.969Z,4.00
2022-10-19T13:15:42.127Z,4.43
2022-10-19T13:20:54.226Z,7.25
2022-10-19T13:26:30.403Z,10.00
2022-10-19T13:31:33.531Z,5.15
2022-10-19T13:36:39.670Z,5.70
2022-10-19T13:41:47.727Z,5.88
2022-10-19T13:47:06.728Z,13.17
2022-10-19T13:52:27.457Z,7.53
2022-10-19T13:57:56.103Z,4.53
2022-10-19T14:03:22.949Z,13.43
2022-10-19T14:08:46.436Z,8.10
2022-10-19T14:14:15.736Z,12.38
2022-10-19T14:19:32.807Z,7.75
2022-10-19T14:24:36.845Z,8.50
2022-10-19T14:29:50.617Z,6.22
2022-10-19T14:34:53.555Z,7.70
2022-10-19T14:40:01.751Z,6.38
2022-10-19T14:45:05.580Z,7.38
2022-10-19T14:50:12.191Z,8.20
2022-10-19T14:55:18.507Z,14.32
2022-10-19T15:00:23.531Z,5.60
2022-10-19T15:05:31.112Z,11.93
2022-10-19T15:10:46.102Z,7.25
2022-10-19T15:15:52.487Z,5.00
2022-10-19T15:21:13.034Z,6.13
2022-10-19T15:26:27.138Z,7.95
2022-10-19T15:31:30.279Z,11.45
2022-10-19T15:36:33.573Z,12.38
2022-10-19T15:41:38.635Z,7.57
2022-10-19T15:46:49.917Z,14.23
2022-10-19T15:51:52.373Z,15.55
2022-10-19T15:56:56.774Z,13.63
2022-10-19T16:01:59.049Z,17.83
2022-10-19T16:07:02.343Z,20.40
2022-10-19T16:12:04.623Z,20.85
2022-10-19T16:17:06.979Z,21.33
2022-10-19T16:22:09.329Z,10.68
2022-10-19T16:27:15.426Z,8.93
2022-10-19T16:32:17.609Z,9.77
2022-10-19T16:37:19.791Z,5.47
2022-10-19T16:42:23.751Z,6.95
2022-10-19T16:47:27.922Z,4.10
2022-10-19T16:52:32.321Z,10.05
2022-10-19T16:57:34.842Z,6.43
2022-10-19T17:02:39.881Z,7.35
2022-10-19T17:07:45.415Z,9.80
2022-10-19T17:12:47.992Z,20.42
2022-10-19T17:17:50.219Z,17.38
2022-10-19T17:22:52.685Z,15.98
2022-10-19T17:27:55.012Z,27.92
2022-10-19T17:32:57.364Z,53.75
2022-10-19T17:38:00.097Z,42.72
2022-10-19T17:43:02.286Z,23.98
2022-10-19T17:48:05.487Z,26.48
2022-10-19T17:53:07.816Z,17.05
2022-10-19T17:58:09.997Z,17.80
2022-10-19T18:03:12.315Z,23.27
2022-10-19T18:08:14.687Z,20.73
2022-10-19T18:13:16.863Z,20.73
2022-10-19T18:18:19.956Z,26.35
2022-10-19T18:23:22.210Z,23.38
2022-10-19T18:28:24.362Z,30.35
2022-10-19T18:33:30.220Z,27.25
2022-10-19T18:38:35.297Z,20.90
2022-10-19T18:43:37.928Z,19.55
2022-10-19T18:48:40.162Z,29.55
2022-10-19T18:53:44.000Z,18.58
2022-10-19T18:58:47.467Z,21.15
2022-10-19T19:03:50.830Z,18.88
2022-10-19T19:08:57.469Z,23.00
2022-10-19T19:14:02.209Z,25.25
2022-10-19T19:19:06.092Z,23.48
2022-10-19T19:24:08.979Z,26.90
2022-10-19T19:29:11.508Z,33.00
2022-10-19T19:34:14.199Z,29.63
2022-10-19T19:39:19.893Z,43.03
2022-10-19T19:44:22.187Z,47.17
2022-10-19T19:49:25.373Z,43.30
2022-10-19T19:54:27.736Z,41.53
2022-10-19T19:59:30.750Z,34.42
2022-10-19T20:04:33.165Z,29.90
2022-10-19T20:09:35.588Z,33.92
2022-10-19T20:14:37.990Z,27.35
2022-10-19T20:19:40.546Z,31.83
2022-10-19T20:24:42.920Z,30.00
2022-10-19T20:29:45.265Z,28.42
2022-10-19T20:34:47.840Z,34.25
2022-10-19T20:39:50.740Z,28.67
2022-10-19T20:44:55.198Z,34.10
2022-10-19T20:49:57.609Z,39.63
2022-10-19T20:55:00.021Z,26.13
2022-10-19T21:00:02.411Z,37.38
2022-10-19T21:05:04.948Z,25.73
2022-10-19T21:10:07.496Z,22.35
2022-10-19T21:15:10.314Z,27.65
2022-10-19T21:20:12.519Z,25.23
2022-10-19T21:25:14.962Z,21.35
2022-10-19T21:30:17.219Z,30.58
2022-10-19T21:35:19.552Z,24.33
2022-10-19T21:40:21.722Z,26.55
2022-10-19T21:45:30.490Z,29.40
2022-10-19T21:50:33.395Z,26.50
2022-10-19T21:55:36.644Z,23.73
2022-10-19T22:00:39.249Z,32.92
2022-10-19T22:05:50.655Z,24.27
2022-10-19T22:10:53.604Z,32.20
2022-10-19T22:15:55.981Z,26.73
2022-10-19T22:20:58.318Z,28.27
2022-10-19T22:26:00.927Z,26.95
2022-10-19T22:31:03.105Z,26.58
2022-10-19T22:36:07.990Z,32.67
2022-10-19T22:42:06.605Z,29.00
2022-10-19T22:48:05.050Z,22.90
2022-10-19T22:53:07.210Z,24.02
2022-10-19T22:58:12.881Z,25.23
2022-10-19T23:03:15.232Z,28.23
2022-10-19T23:08:17.371Z,28.33
2022-10-19T23:13:19.602Z,31.33
2022-10-19T23:18:22.012Z,26.00
2022-10-19T23:23:24.561Z,26.90
2022-10-19T23:28:27.152Z,35.80
2022-10-19T23:33:29.302Z,27.70
2022-10-19T23:38:31.494Z,26.33
2022-10-19T23:43:33.926Z,28.63
2022-10-19T23:48:36.773Z,26.58
2022-10-19T23:53:41.669Z,22.45
2022-10-19T23:58:44.390Z,23.95
